createdAt,value
2022-09-01T00:00:18.348Z,14.60
2022-09-01T00:03:04.300Z,14.60
2022-09-01T00:05:34.304Z,14.60
2022-09-01T00:08:05.324Z,14.60
2022-09-01T00:10:37.628Z,14.60
2022-09-01T00:13:07.668Z,14.60
2022-09-01T00:15:37.845Z,14.60
2022-09-01T00:18:07.362Z,14.66
2022-09-01T00:20:36.672Z,14.70
2022-09-01T00:23:06.270Z,14.70
2022-09-01T00:25:36.698Z,14.70
2022-09-01T00:28:05.092Z,14.70
2022-09-01T00:30:34.797Z,14.70
2022-09-01T00:33:04.300Z,14.70
2022-09-01T00:35:36.814Z,14.70
2022-09-01T00:38:07.314Z,14.70
2022-09-01T00:40:37.386Z,14.70
2022-09-01T00:43:18.704Z,14.70
2022-09-01T00:45:51.336Z,14.70
2022-09-01T00:48:21.742Z,14.70
2022-09-01T00:50:50.983Z,14.70
2022-09-01T00:53:24.808Z,14.70
2022-09-01T00:55:54.257Z,14.70
2022-09-01T00:58:23.883Z,14.70
2022-09-01T01:00:54.211Z,14.70
2022-09-01T01:03:24.488Z,14.70
2022-09-01T01:05:58.024Z,14.80
2022-09-01T01:08:33.443Z,14.80
2022-09-01T01:11:06.391Z,14.80
2022-09-01T01:13:52.493Z,14.80
2022-09-01T01:16:23.672Z,14.80
2022-09-01T01:18:53.783Z,14.80
2022-09-01T01:21:47.210Z,14.82
2022-09-01T01:24:25.317Z,14.90
2022-09-01T01:26:58.272Z,14.90
2022-09-01T01:29:31.750Z,14.90
2022-09-01T01:32:01.841Z,14.90
2022-09-01T01:34:30.664Z,14.90
2022-09-01T01:37:01.356Z,14.90
2022-09-01T01:39:30.985Z,14.90
2022-09-01T01:42:00.572Z,14.90
2022-09-01T01:44:29.978Z,14.90
2022-09-01T01:47:07.999Z,14.90
2022-09-01T01:49:39.229Z,14.90
2022-09-01T01:52:08.646Z,14.90
2022-09-01T01:54:38.649Z,14.90
2022-09-01T01:57:08.562Z,14.90
2022-09-01T01:59:40.411Z,14.90
2022-09-01T02:02:12.524Z,14.90
2022-09-01T02:04:43.254Z,14.90
2022-09-01T02:07:14.166Z,14.90
2022-09-01T02:09:47.872Z,14.90
2022-09-01T02:12:19.169Z,14.90
2022-09-01T02:14:49.874Z,14.96
2022-09-01T02:17:22.485Z,15.00
2022-09-01T02:19:57.263Z,15.00
2022-09-01T02:22:28.192Z,15.00
2022-09-01T02:24:58.111Z,15.00
2022-09-01T02:27:33.682Z,15.00
2022-09-01T02:30:10.648Z,15.00
2022-09-01T02:32:41.606Z,15.00
2022-09-01T02:35:11.494Z,15.00
2022-09-01T02:37:42.023Z,15.00
2022-09-01T02:40:11.640Z,15.00
2022-09-01T02:42:43.079Z,15.00
2022-09-01T02:45:15.592Z,15.00
2022-09-01T02:47:48.005Z,15.00
2022-09-01T02:50:19.061Z,15.00
2022-09-01T02:52:50.724Z,15.00
2022-09-01T02:55:22.298Z,15.00
2022-09-01T02:57:55.157Z,15.00
2022-09-01T03:00:31.068Z,14.96
2022-09-01T03:03:03.079Z,14.90
2022-09-01T03:05:34.103Z,14.90
2022-09-01T03:08:10.100Z,14.90
2022-09-01T03:10:42.035Z,14.90
2022-09-01T03:13:14.937Z,14.90
2022-09-01T03:15:45.617Z,14.90
2022-09-01T03:18:18.056Z,14.90
2022-09-01T03:20:52.764Z,14.90
2022-09-01T03:23:24.935Z,14.90
2022-09-01T03:25:55.296Z,14.90
2022-09-01T03:28:25.036Z,14.90
2022-09-01T03:30:58.655Z,14.90
2022-09-01T03:33:31.886Z,14.88
2022-09-01T03:36:02.084Z,14.80
2022-09-01T03:38:33.235Z,14.80
2022-09-01T03:41:06.627Z,14.80
2022-09-01T03:43:36.517Z,14.80
2022-09-01T03:46:06.304Z,14.80
2022-09-01T03:48:35.958Z,14.80
2022-09-01T03:51:06.206Z,14.80
2022-09-01T03:53:38.666Z,14.80
2022-09-01T03:56:09.397Z,14.80
2022-09-01T03:58:40.544Z,14.80
2022-09-01T04:01:12.720Z,14.76
2022-09-01T04:03:48.692Z,14.70
2022-09-01T04:06:23.454Z,14.70
2022-09-01T04:09:02.223Z,14.70
2022-09-01T04:11:34.603Z,14.70
2022-09-01T04:14:04.085Z,14.70
2022-09-01T04:16:55.174Z,14.70
2022-09-01T04:19:27.251Z,14.70
2022-09-01T04:22:01.686Z,14.70
2022-09-01T04:24:36.424Z,14.70
2022-09-01T04:27:07.152Z,14.70
2022-09-01T04:29:36.854Z,14.70
2022-09-01T04:32:12.220Z,14.70
2022-09-01T04:34:43.896Z,14.70
2022-09-01T04:37:23.052Z,14.70
2022-09-01T04:39:57.619Z,14.70
2022-09-01T04:42:31.832Z,14.70
2022-09-01T04:45:10.039Z,14.80
2022-09-01T04:47:42.833Z,14.80
2022-09-01T04:50:17.443Z,14.80
2022-09-01T04:53:11.524Z,14.90
2022-09-01T04:55:44.190Z,14.90
2022-09-01T04:58:18.062Z,15.00
2022-09-01T05:00:51.677Z,15.00
2022-09-01T05:03:23.551Z,15.10
2022-09-01T05:06:03.529Z,15.10
2022-09-01T05:08:34.895Z,15.20
2022-09-01T05:11:07.653Z,15.26
2022-09-01T05:13:47.468Z,15.30
2022-09-01T05:16:24.853Z,15.40
2022-09-01T05:18:57.466Z,15.46
2022-09-01T05:21:30.267Z,15.50
2022-09-01T05:24:04.791Z,15.60
2022-09-01T05:26:35.509Z,15.70
2022-09-01T05:29:13.028Z,15.70
2022-09-01T05:31:46.378Z,15.80
2022-09-01T05:34:26.056Z,15.88
2022-09-01T05:36:59.038Z,15.90
2022-09-01T05:39:29.063Z,16.00
2022-09-01T05:42:01.182Z,16.10
2022-09-01T05:44:30.733Z,16.14
2022-09-01T05:47:05.005Z,16.20
2022-09-01T05:49:34.959Z,16.30
2022-09-01T05:52:09.077Z,16.40
2022-09-01T05:54:41.079Z,16.50
2022-09-01T05:57:32.563Z,16.70
2022-09-01T06:00:00.439Z,16.80
2022-09-01T06:02:30.638Z,16.80
2022-09-01T06:04:59.939Z,16.90
2022-09-01T06:07:33.543Z,16.90
2022-09-01T06:10:04.216Z,16.96
2022-09-01T06:12:35.824Z,17.00
2022-09-01T06:15:15.367Z,17.10
2022-09-01T06:17:46.925Z,17.20
2022-09-01T06:20:18.546Z,17.30
2022-09-01T06:22:48.832Z,17.40
2022-09-01T06:25:19.692Z,17.40
2022-09-01T06:27:51.952Z,17.50
2022-09-01T06:30:25.914Z,17.70
2022-09-01T06:33:01.809Z,17.80
2022-09-01T06:35:32.617Z,17.90
2022-09-01T06:38:02.769Z,18.08
2022-09-01T06:40:48.002Z,18.10
2022-09-01T06:43:21.423Z,18.10
2022-09-01T06:45:54.222Z,18.20
2022-09-01T06:48:25.430Z,18.10
2022-09-01T06:51:21.074Z,18.10
2022-09-01T06:53:59.066Z,18.10
2022-09-01T06:56:33.628Z,18.20
2022-09-01T06:59:09.753Z,18.40
2022-09-01T07:01:40.100Z,18.44
2022-09-01T07:04:13.415Z,18.58
2022-09-01T07:10:23.072Z,18.90
2022-09-01T07:13:22.122Z,19.10
2022-09-01T07:18:58.154Z,19.34
2022-09-01T07:21:41.773Z,19.38
2022-09-01T07:24:17.704Z,19.30
2022-09-01T07:27:09.512Z,19.20
2022-09-01T07:29:41.714Z,19.20
2022-09-01T07:35:02.276Z,19.44
2022-09-01T07:43:44.657Z,19.78
2022-09-01T07:50:11.145Z,19.80
2022-09-01T07:52:12.580Z,20.00
2022-09-01T07:54:45.459Z,20.20
2022-09-01T07:57:15.065Z,20.30
2022-09-01T07:59:45.286Z,20.30
2022-09-01T08:02:21.308Z,20.40
2022-09-01T08:04:51.866Z,20.60
2022-09-01T08:07:22.194Z,20.70
2022-09-01T08:09:56.083Z,20.90
2022-09-01T08:12:29.341Z,20.90
2022-09-01T08:15:41.367Z,21.00
2022-09-01T08:17:51.512Z,21.10
2022-09-01T08:20:22.384Z,21.10
2022-09-01T08:22:58.152Z,21.10
2022-09-01T08:25:37.305Z,20.98
2022-09-01T08:28:07.811Z,20.70
2022-09-01T08:30:39.970Z,20.80
2022-09-01T08:33:11.544Z,21.10
2022-09-01T08:35:49.099Z,21.10
2022-09-01T08:38:20.073Z,21.22
2022-09-01T08:40:57.407Z,21.94
2022-09-01T08:43:51.057Z,22.58
2022-09-01T08:46:26.752Z,22.40
2022-09-01T08:52:25.281Z,22.84
2022-09-01T08:55:01.745Z,23.40
2022-09-01T08:57:35.744Z,23.46
2022-09-01T09:00:26.367Z,24.22
2022-09-01T09:03:22.069Z,24.72
2022-09-01T09:06:10.625Z,25.40
2022-09-01T09:09:01.092Z,26.14
2022-09-01T09:12:08.754Z,26.70
2022-09-01T09:15:11.011Z,26.06
2022-09-01T09:17:45.691Z,25.70
2022-09-01T09:20:15.430Z,26.14
2022-09-01T09:22:47.662Z,26.76
2022-09-01T09:25:19.867Z,27.48
2022-09-01T09:28:00.419Z,28.16
2022-09-01T09:30:32.404Z,28.68
2022-09-01T09:35:57.342Z,27.66
2022-09-01T09:38:28.652Z,26.68
2022-09-01T09:41:20.343Z,26.00
2022-09-01T09:43:59.102Z,26.86
2022-09-01T09:46:38.084Z,27.60
2022-09-01T09:49:19.881Z,28.12
2022-09-01T09:52:18.051Z,29.16
2022-09-01T09:55:23.783Z,29.62
2022-09-01T09:57:59.406Z,28.52
2022-09-01T10:00:34.811Z,27.34
2022-09-01T10:03:12.608Z,26.06
2022-09-01T10:05:48.097Z,25.06
2022-09-01T10:08:44.746Z,26.32
2022-09-01T10:11:35.436Z,28.22
2022-09-01T10:14:23.595Z,29.96
2022-09-01T10:17:09.388Z,31.12
2022-09-01T10:19:41.752Z,31.66
2022-09-01T10:22:15.216Z,29.72
2022-09-01T10:24:45.986Z,28.44
2022-09-01T10:27:24.511Z,27.40
2022-09-01T10:32:58.144Z,25.82
2022-09-01T10:35:33.117Z,27.00
2022-09-01T10:38:08.271Z,28.88
2022-09-01T10:40:50.210Z,30.66
2022-09-01T10:43:38.251Z,31.54
2022-09-01T10:46:51.193Z,32.96
2022-09-01T10:49:57.612Z,34.04
2022-09-01T10:53:04.931Z,33.80
2022-09-01T10:55:42.268Z,34.52
2022-09-01T11:02:26.778Z,33.54
2022-09-01T11:05:19.212Z,35.06
2022-09-01T11:08:15.235Z,35.76
2022-09-01T11:10:59.967Z,36.52
2022-09-01T11:13:49.768Z,36.88
2022-09-01T11:16:50.625Z,36.10
2022-09-01T11:19:41.841Z,34.58
2022-09-01T11:22:26.873Z,35.86
2022-09-01T11:25:42.482Z,36.80
2022-09-01T11:28:38.665Z,37.04
2022-09-01T11:31:40.396Z,37.64
2022-09-01T11:34:18.705Z,38.46
2022-09-01T11:36:58.459Z,37.72
2022-09-01T11:39:41.252Z,37.90
2022-09-01T11:42:19.165Z,38.08
2022-09-01T11:44:55.446Z,38.50
2022-09-01T11:47:29.550Z,38.80
2022-09-01T11:50:04.691Z,39.04
2022-09-01T11:52:38.404Z,39.00
2022-09-01T11:55:10.466Z,39.18
2022-09-01T11:57:41.292Z,38.84
2022-09-01T12:00:25.440Z,39.04
2022-09-01T12:02:55.033Z,39.32
2022-09-01T12:05:33.930Z,39.86
2022-09-01T12:08:13.523Z,40.50
2022-09-01T12:10:44.740Z,41.00
2022-09-01T12:13:21.229Z,41.46
2022-09-01T12:16:16.879Z,41.62
2022-09-01T12:18:50.884Z,41.90
2022-09-01T12:21:25.587Z,42.10
2022-09-01T12:24:09.776Z,42.38
2022-09-01T12:26:40.544Z,40.90
2022-09-01T12:29:13.278Z,37.70
2022-09-01T12:31:46.118Z,34.50
2022-09-01T12:34:39.238Z,31.76
2022-09-01T12:37:20.674Z,29.74
2022-09-01T12:39:52.584Z,28.30
2022-09-01T12:42:29.875Z,27.14
2022-09-01T12:45:13.098Z,26.20
2022-09-01T12:47:50.993Z,25.70
2022-09-01T12:50:45.770Z,26.88
2022-09-01T12:53:25.198Z,29.48
2022-09-01T12:56:26.066Z,31.84
2022-09-01T12:59:15.711Z,33.92
2022-09-01T13:01:47.883Z,35.62
2022-09-01T13:04:29.536Z,36.86
2022-09-01T13:07:05.978Z,38.02
2022-09-01T13:09:35.653Z,39.00
2022-09-01T13:12:21.407Z,39.92
2022-09-01T13:14:50.965Z,40.38
2022-09-01T13:17:23.826Z,40.94
2022-09-01T13:19:53.549Z,41.00
2022-09-01T13:22:22.979Z,39.98
2022-09-01T13:24:52.754Z,37.34
2022-09-01T13:27:23.103Z,36.56
2022-09-01T13:29:53.133Z,34.54
2022-09-01T13:32:24.686Z,32.70
2022-09-01T13:34:55.216Z,33.54
2022-09-01T13:37:25.060Z,34.98
2022-09-01T13:39:54.492Z,35.86
2022-09-01T13:42:25.467Z,36.98
2022-09-01T13:44:58.337Z,37.76
2022-09-01T13:47:29.528Z,37.72
2022-09-01T13:50:10.517Z,38.22
2022-09-01T13:52:43.393Z,38.92
2022-09-01T13:55:16.841Z,39.06
2022-09-01T13:57:46.487Z,39.44
2022-09-01T14:00:23.924Z,37.20
2022-09-01T14:02:56.882Z,34.10
2022-09-01T14:05:28.888Z,31.54
2022-09-01T14:07:59.952Z,29.68
2022-09-01T14:10:31.948Z,28.12
2022-09-01T14:13:01.778Z,26.94
2022-09-01T14:15:31.419Z,26.14
2022-09-01T14:18:01.196Z,25.50
2022-09-01T14:20:36.926Z,25.20
2022-09-01T14:23:10.525Z,25.66
2022-09-01T14:25:46.495Z,26.96
2022-09-01T14:28:20.300Z,29.22
2022-09-01T14:33:23.910Z,32.04
2022-09-01T14:35:53.955Z,33.32
2022-09-01T14:38:23.896Z,34.70
2022-09-01T14:40:53.582Z,35.92
2022-09-01T14:43:25.756Z,36.90
2022-09-01T14:46:08.875Z,37.76
2022-09-01T14:48:40.462Z,38.46
2022-09-01T14:51:21.994Z,39.06
2022-09-01T14:53:53.275Z,39.50
2022-09-01T14:56:23.998Z,39.62
2022-09-01T14:59:00.055Z,39.94
2022-09-01T15:01:34.729Z,40.30
2022-09-01T15:04:05.308Z,39.72
2022-09-01T15:06:35.966Z,38.52
2022-09-01T15:09:06.263Z,37.80
2022-09-01T15:11:39.619Z,36.38
2022-09-01T15:14:13.770Z,34.20
2022-09-01T15:16:44.149Z,31.82
2022-09-01T15:19:15.362Z,29.84
2022-09-01T15:21:47.224Z,28.32
2022-09-01T15:24:18.345Z,27.06
2022-09-01T15:26:47.965Z,26.06
2022-09-01T15:29:17.665Z,25.30
2022-09-01T15:31:47.233Z,24.90
2022-09-01T15:34:17.906Z,26.14
2022-09-01T15:36:47.202Z,27.36
2022-09-01T15:39:16.923Z,27.20
2022-09-01T15:41:47.034Z,26.50
2022-09-01T15:44:16.741Z,25.74
2022-09-01T15:46:46.406Z,25.06
2022-09-01T15:49:17.706Z,24.46
2022-09-01T15:51:47.204Z,23.96
2022-09-01T15:54:20.337Z,23.58
2022-09-01T15:56:50.107Z,23.22
2022-09-01T15:59:20.627Z,23.00
2022-09-01T16:01:53.099Z,22.70
2022-09-01T16:04:27.538Z,22.50
2022-09-01T16:06:57.822Z,22.30
2022-09-01T16:09:27.481Z,22.20
2022-09-01T16:11:56.909Z,22.00
2022-09-01T16:14:28.136Z,21.80
2022-09-01T16:17:04.547Z,21.60
2022-09-01T16:19:51.470Z,21.48
2022-09-01T16:22:29.051Z,21.40
2022-09-01T16:25:07.319Z,21.30
2022-09-01T16:27:41.699Z,21.24
2022-09-01T16:30:16.154Z,21.46
2022-09-01T16:32:48.301Z,23.02
2022-09-01T16:35:22.831Z,23.84
2022-09-01T16:38:03.594Z,24.50
2022-09-01T16:40:43.586Z,24.60
2022-09-01T16:43:22.490Z,24.70
2022-09-01T16:46:03.532Z,24.30
2022-09-01T16:48:41.091Z,23.72
2022-09-01T16:51:22.256Z,23.06
2022-09-01T16:54:12.310Z,22.50
2022-09-01T16:56:58.227Z,22.06
2022-09-01T16:59:40.198Z,21.60
2022-09-01T17:02:29.884Z,21.20
2022-09-01T17:05:07.986Z,20.80
2022-09-01T17:07:47.629Z,20.50
2022-09-01T17:10:32.292Z,20.28
2022-09-01T17:13:19.868Z,20.00
2022-09-01T17:16:01.789Z,19.80
2022-09-01T17:18:42.681Z,19.64
2022-09-01T17:21:19.161Z,19.50
2022-09-01T17:23:55.515Z,19.30
2022-09-01T17:26:29.189Z,19.10
2022-09-01T17:29:07.027Z,18.92
2022-09-01T17:31:53.944Z,18.80
2022-09-01T17:34:40.642Z,18.60
2022-09-01T17:37:23.163Z,18.42
2022-09-01T17:40:09.862Z,18.30
2022-09-01T17:42:50.433Z,18.10
2022-09-01T17:45:30.173Z,18.00
2022-09-01T17:48:09.673Z,17.90
2022-09-01T17:50:59.531Z,17.80
2022-09-01T17:53:41.924Z,17.60
2022-09-01T17:56:33.225Z,17.50
2022-09-01T17:59:11.563Z,17.40
2022-09-01T18:01:53.570Z,17.34
2022-09-01T18:05:10.179Z,17.30
2022-09-01T18:07:58.711Z,17.20
2022-09-01T18:10:37.412Z,17.10
2022-09-01T18:13:25.912Z,17.00
2022-09-01T18:16:13.278Z,16.90
2022-09-01T18:18:46.094Z,16.90
2022-09-01T18:21:20.224Z,16.80
2022-09-01T18:23:55.629Z,16.80
2022-09-01T18:26:31.993Z,16.70
2022-09-01T18:29:04.649Z,16.64
2022-09-01T18:32:03.461Z,16.60
2022-09-01T18:34:51.503Z,16.50
2022-09-01T18:37:32.293Z,16.50
2022-09-01T18:40:16.773Z,16.40
2022-09-01T18:42:57.399Z,16.40
2022-09-01T18:45:37.463Z,16.30
2022-09-01T18:48:22.646Z,16.30
2022-09-01T18:51:02.265Z,16.20
2022-09-01T18:53:45.943Z,16.20
2022-09-01T18:56:31.496Z,16.10
2022-09-01T18:59:26.283Z,16.10
2022-09-01T19:02:23.377Z,16.00
2022-09-01T19:04:59.675Z,15.90
2022-09-01T19:07:41.798Z,15.80
2022-09-01T19:10:19.910Z,15.70
2022-09-01T19:12:56.990Z,15.60
2022-09-01T19:15:34.866Z,15.50
2022-09-01T19:18:27.445Z,15.40
2022-09-01T19:21:06.039Z,15.30
2022-09-01T19:23:44.573Z,15.20
2022-09-01T19:26:20.734Z,15.10
2022-09-01T19:28:55.318Z,15.10
2022-09-01T19:31:29.174Z,15.00
2022-09-01T19:34:02.663Z,15.00
2022-09-01T19:36:43.482Z,14.90
2022-09-01T19:39:18.504Z,14.90
2022-09-01T19:41:53.803Z,14.90
2022-09-01T19:44:34.479Z,14.80
2022-09-01T19:47:09.607Z,14.80
2022-09-01T19:49:47.925Z,14.80
2022-09-01T19:52:31.814Z,14.70
2022-09-01T19:55:06.591Z,14.70
2022-09-01T19:57:41.438Z,14.70
2022-09-01T20:00:18.267Z,14.60
2022-09-01T20:03:00.898Z,14.60
2022-09-01T20:05:38.411Z,14.60
2022-09-01T20:08:15.708Z,14.52
2022-09-01T20:11:02.931Z,14.50
2022-09-01T20:13:49.771Z,14.50
2022-09-01T20:16:30.811Z,14.50
2022-09-01T20:19:08.300Z,14.50
2022-09-01T20:21:42.834Z,14.46
2022-09-01T20:24:24.663Z,14.40
2022-09-01T20:27:01.640Z,14.42
2022-09-01T20:29:47.286Z,14.50
2022-09-01T20:32:26.210Z,14.50
2022-09-01T20:35:02.397Z,14.50
2022-09-01T20:37:37.378Z,14.60
2022-09-01T20:40:13.207Z,14.60
2022-09-01T20:42:53.202Z,14.64
2022-09-01T20:45:25.951Z,14.70
2022-09-01T20:47:58.206Z,14.70
2022-09-01T20:50:42.663Z,14.70
2022-09-01T20:53:35.564Z,14.70
2022-09-01T20:56:14.324Z,14.70
2022-09-01T21:01:33.000Z,14.70
2022-09-01T21:04:29.842Z,14.70
2022-09-01T21:07:08.127Z,14.70
2022-09-01T21:09:50.011Z,14.80
2022-09-01T21:12:31.508Z,14.80
2022-09-01T21:15:15.850Z,14.80
2022-09-01T21:18:03.584Z,14.80
2022-09-01T21:20:56.793Z,14.82
2022-09-01T21:23:28.942Z,14.90
2022-09-01T21:25:59.226Z,14.90
2022-09-01T21:28:29.363Z,14.90
2022-09-01T21:30:59.876Z,14.92
2022-09-01T21:33:32.154Z,15.00
2022-09-01T21:36:02.495Z,15.00
2022-09-01T21:38:31.903Z,15.02
2022-09-01T21:41:01.948Z,15.10
2022-09-01T21:43:36.111Z,15.10
2022-09-01T21:46:08.133Z,15.12
2022-09-01T21:48:37.789Z,15.20
2022-09-01T21:51:07.632Z,15.20
2022-09-01T21:53:36.902Z,15.20
2022-09-01T21:56:06.631Z,15.28
2022-09-01T21:58:39.457Z,15.30
2022-09-01T22:01:10.530Z,15.30
2022-09-01T22:03:44.450Z,15.30
2022-09-01T22:06:14.684Z,15.30
2022-09-01T22:08:44.111Z,15.30
2022-09-01T22:11:13.378Z,15.30
2022-09-01T22:13:43.090Z,15.40
2022-09-01T22:16:18.025Z,15.40
2022-09-01T22:18:48.126Z,15.50
2022-09-01T22:21:18.143Z,15.50
2022-09-01T22:23:47.656Z,15.50
2022-09-01T22:26:22.646Z,15.50
2022-09-01T22:28:54.267Z,15.50
2022-09-01T22:31:26.875Z,15.50
2022-09-01T22:33:56.940Z,15.40
2022-09-01T22:36:33.410Z,15.40
2022-09-01T22:39:03.706Z,15.40
2022-09-01T22:41:34.883Z,15.30
2022-09-01T22:44:07.275Z,15.30
2022-09-01T22:46:38.985Z,15.30
2022-09-01T22:49:09.138Z,15.30
2022-09-01T22:51:41.886Z,15.30
2022-09-01T22:54:12.885Z,15.30
2022-09-01T22:56:41.927Z,15.30
2022-09-01T22:59:14.144Z,15.24
2022-09-01T23:01:47.438Z,15.20
2022-09-01T23:04:18.760Z,15.20
2022-09-01T23:06:53.897Z,15.20
2022-09-01T23:09:23.311Z,15.10
2022-09-01T23:11:52.713Z,15.16
2022-09-01T23:14:22.010Z,15.14
2022-09-01T23:16:52.309Z,15.20
2022-09-01T23:19:21.808Z,15.20
2022-09-01T23:21:51.519Z,15.20
2022-09-01T23:24:21.359Z,15.20
2022-09-01T23:26:51.118Z,15.20
2022-09-01T23:29:20.789Z,15.20
2022-09-01T23:31:50.545Z,15.20
2022-09-01T23:34:20.027Z,15.14
2022-09-01T23:36:49.396Z,15.10
2022-09-01T23:39:18.808Z,15.10
2022-09-01T23:41:48.206Z,15.10
2022-09-01T23:44:17.812Z,15.00
2022-09-01T23:46:48.286Z,15.00
2022-09-01T23:49:19.453Z,14.98
2022-09-01T23:51:49.286Z,14.90
2022-09-01T23:54:19.718Z,14.90
2022-09-01T23:56:49.436Z,14.80
2022-09-01T23:59:24.314Z,14.80
